createdAt,value
2022-10-05T00:00:23.108Z,95.72
2022-10-05T00:01:23.133Z,95.72
2022-10-05T00:02:23.058Z,95.46
2022-10-05T00:03:23.082Z,95.41
2022-10-05T00:04:23.039Z,95.66
2022-10-05T00:05:23.067Z,95.41
2022-10-05T00:06:23.043Z,95.46
2022-10-05T00:07:23.002Z,95.21
2022-10-05T00:08:22.983Z,95.62
2022-10-05T00:09:23.042Z,95.31
2022-10-05T00:10:22.969Z,95.31
2022-10-05T00:11:22.955Z,95.56
2022-10-05T00:12:22.953Z,95.51
2022-10-05T00:13:22.951Z,95.62
2022-10-05T00:14:22.923Z,95.66
2022-10-05T00:15:22.916Z,95.62
2022-10-05T00:16:22.961Z,95.41
2022-10-05T00:17:22.889Z,95.46
2022-10-05T00:18:22.878Z,95.66
2022-10-05T00:19:22.879Z,95.56
2022-10-05T00:20:22.857Z,95.36
2022-10-05T00:21:22.845Z,95.36
2022-10-05T00:22:22.832Z,95.36
2022-10-05T00:23:22.824Z,95.56
2022-10-05T00:24:22.846Z,95.36
2022-10-05T00:25:22.797Z,95.36
2022-10-05T00:26:22.812Z,95.36
2022-10-05T00:27:22.788Z,95.36
2022-10-05T00:28:22.919Z,95.36
2022-10-05T00:29:22.759Z,95.36
2022-10-05T00:30:22.759Z,95.36
2022-10-05T00:31:22.856Z,95.56
2022-10-05T00:32:22.795Z,95.56
2022-10-05T00:33:22.708Z,95.40
2022-10-05T00:34:22.704Z,95.50
2022-10-05T00:35:22.699Z,95.46
2022-10-05T00:36:22.704Z,95.29
2022-10-05T00:37:22.658Z,95.40
2022-10-05T00:38:22.656Z,95.91
2022-10-05T00:39:22.639Z,95.81
2022-10-05T00:40:22.653Z,95.91
2022-10-05T00:41:22.623Z,95.91
2022-10-05T00:42:22.609Z,95.29
2022-10-05T00:43:22.595Z,95.54
2022-10-05T00:44:22.588Z,96.26
2022-10-05T00:45:22.567Z,96.26
2022-10-05T00:46:22.624Z,96.16
2022-10-05T00:47:22.551Z,96.31
2022-10-05T00:48:22.559Z,96.47
2022-10-05T00:49:22.532Z,96.20
2022-10-05T00:50:22.522Z,96.10
2022-10-05T00:51:22.522Z,96.20
2022-10-05T00:52:22.501Z,96.31
2022-10-05T00:53:22.483Z,96.41
2022-10-05T00:54:22.493Z,96.62
2022-10-05T00:55:22.481Z,96.10
2022-10-05T00:56:22.472Z,96.31
2022-10-05T00:57:22.448Z,97.03
2022-10-05T00:58:22.433Z,96.82
2022-10-05T00:59:22.450Z,97.03
2022-10-05T01:00:22.470Z,97.03
2022-10-05T01:01:22.484Z,97.17
2022-10-05T01:02:22.440Z,96.82
2022-10-05T01:03:22.402Z,96.62
2022-10-05T01:04:22.535Z,96.62
2022-10-05T01:05:22.362Z,96.72
2022-10-05T01:06:22.343Z,97.64
2022-10-05T01:07:22.398Z,97.44
2022-10-05T01:08:22.319Z,97.33
2022-10-05T01:09:22.312Z,97.64
2022-10-05T01:10:22.298Z,97.44
2022-10-05T01:11:22.290Z,97.13
2022-10-05T01:12:22.315Z,97.38
2022-10-05T01:13:22.262Z,97.23
2022-10-05T01:14:22.251Z,97.48
2022-10-05T01:15:22.270Z,97.33
2022-10-05T01:16:22.280Z,97.33
2022-10-05T01:17:22.222Z,97.54
2022-10-05T01:18:22.210Z,97.33
2022-10-05T01:19:22.219Z,97.44
2022-10-05T01:20:22.296Z,97.48
2022-10-05T01:21:22.182Z,97.48
2022-10-05T01:22:22.163Z,97.58
2022-10-05T01:23:22.177Z,97.48
2022-10-05T01:24:22.152Z,96.97
2022-10-05T01:25:22.135Z,97.33
2022-10-05T01:26:22.140Z,97.13
2022-10-05T01:27:22.104Z,97.28
2022-10-05T01:28:22.199Z,97.13
2022-10-05T01:29:22.091Z,97.38
2022-10-05T01:30:22.078Z,97.28
2022-10-05T01:31:22.105Z,97.23
2022-10-05T01:32:22.054Z,97.33
2022-10-05T01:33:22.045Z,97.13
2022-10-05T01:34:22.049Z,97.13
2022-10-05T01:35:22.021Z,97.17
2022-10-05T01:36:22.053Z,96.97
2022-10-05T01:37:21.997Z,96.97
2022-10-05T01:38:28.675Z,97.38
2022-10-05T01:39:22.011Z,96.97
2022-10-05T01:40:21.982Z,97.17
2022-10-05T01:41:22.069Z,97.17
2022-10-05T01:42:21.944Z,97.17
2022-10-05T01:43:21.960Z,97.28
2022-10-05T01:44:21.924Z,97.38
2022-10-05T01:45:21.914Z,96.97
2022-10-05T01:46:22.004Z,97.58
2022-10-05T01:47:21.892Z,97.64
2022-10-05T01:48:22.002Z,97.58
2022-10-05T01:49:21.871Z,97.58
2022-10-05T01:50:21.850Z,97.79
2022-10-05T01:51:21.845Z,97.28
2022-10-05T01:52:21.903Z,97.58
2022-10-05T01:53:21.826Z,97.44
2022-10-05T01:54:21.834Z,97.48
2022-10-05T01:55:21.872Z,97.79
2022-10-05T01:56:21.789Z,97.48
2022-10-05T01:57:21.782Z,97.69
2022-10-05T01:58:21.759Z,97.79
2022-10-05T01:59:21.791Z,97.58
2022-10-05T02:00:21.794Z,97.58
2022-10-05T02:01:21.861Z,97.58
2022-10-05T02:02:21.767Z,97.79
2022-10-05T02:03:21.708Z,97.79
2022-10-05T02:04:56.546Z,97.64
2022-10-05T02:05:22.710Z,97.58
2022-10-05T02:06:21.685Z,97.58
2022-10-05T02:07:21.674Z,97.58
2022-10-05T02:08:21.676Z,97.63
2022-10-05T02:09:21.818Z,97.58
2022-10-05T02:10:21.656Z,98.41
2022-10-05T02:11:21.626Z,98.04
2022-10-05T02:12:21.607Z,98.10
2022-10-05T02:13:21.602Z,98.10
2022-10-05T02:14:21.609Z,98.10
2022-10-05T02:15:21.598Z,98.20
2022-10-05T02:16:21.663Z,98.20
2022-10-05T02:17:21.578Z,97.99
2022-10-05T02:18:21.596Z,97.89
2022-10-05T02:19:21.536Z,98.20
2022-10-05T02:20:21.519Z,98.04
2022-10-05T02:21:21.516Z,98.04
2022-10-05T02:22:21.495Z,98.14
2022-10-05T02:23:21.510Z,98.10
2022-10-05T02:24:21.621Z,98.35
2022-10-05T02:25:21.522Z,98.35
2022-10-05T02:26:21.467Z,98.25
2022-10-05T02:27:21.469Z,98.35
2022-10-05T02:28:21.490Z,98.45
2022-10-05T02:29:21.434Z,98.45
2022-10-05T02:30:21.501Z,98.25
2022-10-05T02:31:21.482Z,98.29
2022-10-05T02:32:21.391Z,98.35
2022-10-05T02:33:21.380Z,98.35
2022-10-05T02:34:21.394Z,98.45
2022-10-05T02:35:21.400Z,98.35
2022-10-05T02:36:21.354Z,98.29
2022-10-05T02:37:21.355Z,98.29
2022-10-05T02:38:21.327Z,98.39
2022-10-05T02:39:21.313Z,98.45
2022-10-05T02:40:21.404Z,98.91
2022-10-05T02:41:21.293Z,98.86
2022-10-05T02:42:21.283Z,98.55
2022-10-05T02:43:21.268Z,98.35
2022-10-05T02:44:21.262Z,98.86
2022-10-05T02:45:21.266Z,98.66
2022-10-05T02:46:21.294Z,98.70
2022-10-05T02:47:21.224Z,98.76
2022-10-05T02:48:21.223Z,98.86
2022-10-05T02:49:21.214Z,98.66
2022-10-05T02:50:21.211Z,98.55
2022-10-05T02:51:21.181Z,98.45
2022-10-05T02:52:21.170Z,98.60
2022-10-05T02:53:21.155Z,98.76
2022-10-05T02:54:21.191Z,98.50
2022-10-05T02:55:21.130Z,99.01
2022-10-05T02:56:21.149Z,99.01
2022-10-05T02:57:21.136Z,98.70
2022-10-05T02:58:21.108Z,98.60
2022-10-05T02:59:21.085Z,98.70
2022-10-05T03:00:21.100Z,98.80
2022-10-05T03:01:21.146Z,98.91
2022-10-05T03:02:21.143Z,98.80
2022-10-05T03:03:21.049Z,98.60
2022-10-05T03:04:21.041Z,98.60
2022-10-05T03:05:21.056Z,98.80
2022-10-05T03:06:21.033Z,98.55
2022-10-05T03:07:21.006Z,98.39
2022-10-05T03:08:20.997Z,98.55
2022-10-05T03:09:20.996Z,98.55
2022-10-05T03:10:20.979Z,98.55
2022-10-05T03:11:20.982Z,98.45
2022-10-05T03:12:20.971Z,98.41
2022-10-05T03:13:20.938Z,98.30
2022-10-05T03:14:20.963Z,98.45
2022-10-05T03:15:20.907Z,98.35
2022-10-05T03:16:21.010Z,98.45
2022-10-05T03:17:20.897Z,98.35
2022-10-05T03:18:20.907Z,98.45
2022-10-05T03:19:20.872Z,98.55
2022-10-05T03:20:20.863Z,98.45
2022-10-05T03:21:20.852Z,98.55
2022-10-05T03:22:20.842Z,98.45
2022-10-05T03:23:21.099Z,98.66
2022-10-05T03:24:20.819Z,98.66
2022-10-05T03:25:20.805Z,98.45
2022-10-05T03:26:20.797Z,98.76
2022-10-05T03:27:20.782Z,98.76
2022-10-05T03:28:20.924Z,98.86
2022-10-05T03:29:20.760Z,98.30
2022-10-05T03:30:20.752Z,98.25
2022-10-05T03:31:20.827Z,98.45
2022-10-05T03:32:20.737Z,98.45
2022-10-05T03:33:20.776Z,98.45
2022-10-05T03:34:20.704Z,98.45
2022-10-05T03:35:20.697Z,98.45
2022-10-05T03:36:20.687Z,98.35
2022-10-05T03:37:20.686Z,98.25
2022-10-05T03:38:20.703Z,98.66
2022-10-05T03:39:20.644Z,98.35
2022-10-05T03:40:20.650Z,98.66
2022-10-05T03:41:20.629Z,98.55
2022-10-05T03:42:20.624Z,98.70
2022-10-05T03:43:20.639Z,98.70
2022-10-05T03:44:20.612Z,98.91
2022-10-05T03:45:20.593Z,98.91
2022-10-05T03:46:20.609Z,99.01
2022-10-05T03:47:20.564Z,99.01
2022-10-05T03:48:20.583Z,98.70
2022-10-05T03:49:20.550Z,98.70
2022-10-05T03:50:20.536Z,99.01
2022-10-05T03:51:20.520Z,98.70
2022-10-05T03:52:20.559Z,98.80
2022-10-05T03:53:20.510Z,98.50
2022-10-05T03:54:20.502Z,98.50
2022-10-05T03:55:20.474Z,98.29
2022-10-05T03:56:20.466Z,98.60
2022-10-05T03:57:20.454Z,98.80
2022-10-05T03:58:20.465Z,99.01
2022-10-05T03:59:20.436Z,99.01
2022-10-05T04:00:20.435Z,99.01
2022-10-05T04:01:20.489Z,99.11
2022-10-05T04:02:20.479Z,98.60
2022-10-05T04:03:20.420Z,99.21
2022-10-05T04:04:20.375Z,99.01
2022-10-05T04:05:20.402Z,99.01
2022-10-05T04:06:20.355Z,99.01
2022-10-05T04:07:20.364Z,99.11
2022-10-05T04:08:20.334Z,99.16
2022-10-05T04:09:20.312Z,99.01
2022-10-05T04:10:20.314Z,99.01
2022-10-05T04:11:20.301Z,99.26
2022-10-05T04:12:20.311Z,98.91
2022-10-05T04:13:20.276Z,98.80
2022-10-05T04:14:20.267Z,98.80
2022-10-05T04:15:20.253Z,99.11
2022-10-05T04:16:20.296Z,98.70
2022-10-05T04:17:20.249Z,98.91
2022-10-05T04:18:20.233Z,98.70
2022-10-05T04:19:20.200Z,98.60
2022-10-05T04:20:20.211Z,98.75
2022-10-05T04:21:23.677Z,99.05
2022-10-05T04:22:20.200Z,99.01
2022-10-05T04:23:20.164Z,99.16
2022-10-05T04:24:20.150Z,98.70
2022-10-05T04:25:20.134Z,99.11
2022-10-05T04:26:20.126Z,98.80
2022-10-05T04:27:20.112Z,99.21
2022-10-05T04:28:20.211Z,99.21
2022-10-05T04:29:20.091Z,99.52
2022-10-05T04:30:20.087Z,99.32
2022-10-05T04:31:20.162Z,99.11
2022-10-05T04:32:20.073Z,99.21
2022-10-05T04:33:20.070Z,99.79
2022-10-05T04:34:20.037Z,99.99
2022-10-05T04:35:20.033Z,99.99
2022-10-05T04:36:20.037Z,99.68
2022-10-05T04:37:20.002Z,99.68
2022-10-05T04:38:19.993Z,99.89
2022-10-05T04:39:19.987Z,99.89
2022-10-05T04:40:19.970Z,99.89
2022-10-05T04:41:19.979Z,99.74
2022-10-05T04:42:19.949Z,99.89
2022-10-05T04:43:19.964Z,99.95
2022-10-05T04:44:19.927Z,99.84
2022-10-05T04:45:19.914Z,99.33
2022-10-05T04:46:20.032Z,99.38
2022-10-05T04:47:19.911Z,99.89
2022-10-05T04:48:19.918Z,99.43
2022-10-05T04:49:19.870Z,99.43
2022-10-05T04:50:19.860Z,99.48
2022-10-05T04:51:19.869Z,99.48
2022-10-05T04:52:19.856Z,99.43
2022-10-05T04:53:19.831Z,99.33
2022-10-05T04:54:19.821Z,99.68
2022-10-05T04:55:19.803Z,99.84
2022-10-05T04:56:19.813Z,99.54
2022-10-05T04:57:19.801Z,99.63
2022-10-05T04:58:19.772Z,99.63
2022-10-05T04:59:19.760Z,99.63
2022-10-05T05:00:19.753Z,99.54
2022-10-05T05:01:19.771Z,99.54
2022-10-05T05:02:19.752Z,99.74
2022-10-05T05:03:19.787Z,99.69
2022-10-05T05:04:19.721Z,99.63
2022-10-05T05:05:19.697Z,99.59
2022-10-05T05:06:19.685Z,99.54
2022-10-05T05:07:19.708Z,99.59
2022-10-05T05:08:19.673Z,99.38
2022-10-05T05:09:19.650Z,99.69
2022-10-05T05:10:19.642Z,99.69
2022-10-05T05:11:24.302Z,99.49
2022-10-05T05:12:20.639Z,99.49
2022-10-05T05:13:19.606Z,99.69
2022-10-05T05:14:19.595Z,99.49
2022-10-05T05:15:19.585Z,99.59
2022-10-05T05:16:19.687Z,99.59
2022-10-05T05:17:19.580Z,99.49
2022-10-05T05:18:19.559Z,99.38
2022-10-05T05:19:19.537Z,99.43
2022-10-05T05:20:19.565Z,99.43
2022-10-05T05:21:19.515Z,99.43
2022-10-05T05:22:19.536Z,99.43
2022-10-05T05:23:19.502Z,99.84
2022-10-05T05:24:19.496Z,99.43
2022-10-05T05:25:19.480Z,99.54
2022-10-05T05:26:19.491Z,99.63
2022-10-05T05:27:19.458Z,99.54
2022-10-05T05:28:19.540Z,99.54
2022-10-05T05:29:19.430Z,99.74
2022-10-05T05:30:19.440Z,99.43
2022-10-05T05:31:19.507Z,99.69
2022-10-05T05:32:19.407Z,99.79
2022-10-05T05:33:19.394Z,99.75
2022-10-05T05:34:19.394Z,99.75
2022-10-05T05:35:19.388Z,99.75
2022-10-05T05:36:22.973Z,99.65
2022-10-05T05:37:19.343Z,99.65
2022-10-05T05:38:19.330Z,99.65
2022-10-05T05:39:19.322Z,99.70
2022-10-05T05:40:19.314Z,99.50
2022-10-05T05:41:19.322Z,99.70
2022-10-05T05:42:19.311Z,99.60
2022-10-05T05:43:19.278Z,99.60
2022-10-05T05:44:19.264Z,99.50
2022-10-05T05:45:19.253Z,99.60
2022-10-05T05:46:19.318Z,99.65
2022-10-05T05:47:19.305Z,99.44
2022-10-05T05:48:19.220Z,99.65
2022-10-05T05:49:19.207Z,99.24
2022-10-05T05:50:19.197Z,99.75
2022-10-05T05:51:19.206Z,99.75
2022-10-05T05:52:19.257Z,99.75
2022-10-05T05:53:19.166Z,99.75
2022-10-05T05:54:19.175Z,99.65
2022-10-05T05:55:19.146Z,99.85
2022-10-05T05:56:19.151Z,99.34
2022-10-05T05:57:19.118Z,99.85
2022-10-05T05:58:19.129Z,99.95
2022-10-05T05:59:19.098Z,99.54
2022-10-05T06:00:19.088Z,99.85
2022-10-05T06:01:32.177Z,99.70
2022-10-05T06:02:20.135Z,99.75
2022-10-05T06:03:19.218Z,99.75
2022-10-05T06:04:19.042Z,99.40
2022-10-05T06:05:19.032Z,99.95
2022-10-05T06:06:19.019Z,99.80
2022-10-05T06:07:19.007Z,99.34
2022-10-05T06:08:19.036Z,99.65
2022-10-05T06:09:18.984Z,99.91
2022-10-05T06:10:18.976Z,99.85
2022-10-05T06:11:18.962Z,99.85
2022-10-05T06:12:18.973Z,99.91
2022-10-05T06:13:18.964Z,99.85
2022-10-05T06:14:18.952Z,99.91
2022-10-05T06:15:18.917Z,99.99
2022-10-05T06:16:18.990Z,99.99
2022-10-05T06:17:18.897Z,99.91
2022-10-05T06:18:18.907Z,99.40
2022-10-05T06:19:18.872Z,99.99
2022-10-05T06:20:18.884Z,99.80
2022-10-05T06:21:18.850Z,99.86
2022-10-05T06:22:18.840Z,99.86
2022-10-05T06:23:18.830Z,99.86
2022-10-05T06:24:18.861Z,99.04
2022-10-05T06:25:18.806Z,99.25
2022-10-05T06:26:18.796Z,98.94
2022-10-05T06:27:18.784Z,98.94
2022-10-05T06:28:18.809Z,98.94
2022-10-05T06:29:18.783Z,98.74
2022-10-05T06:30:18.750Z,99.04
2022-10-05T06:31:18.807Z,98.49
2022-10-05T06:32:18.728Z,98.58
2022-10-05T06:33:18.714Z,98.58
2022-10-05T06:34:18.706Z,99.04
2022-10-05T06:35:18.846Z,98.79
2022-10-05T06:36:18.697Z,98.79
2022-10-05T06:37:18.672Z,98.69
2022-10-05T06:38:18.661Z,98.74
2022-10-05T06:39:18.650Z,98.69
2022-10-05T06:40:18.674Z,98.58
2022-10-05T06:41:18.626Z,98.58
2022-10-05T06:42:18.614Z,98.69
2022-10-05T06:43:18.605Z,98.28
2022-10-05T06:44:18.621Z,98.49
2022-10-05T06:45:18.619Z,98.49
2022-10-05T06:46:18.671Z,98.38
2022-10-05T06:47:18.560Z,98.49
2022-10-05T06:48:18.558Z,98.58
2022-10-05T06:49:18.562Z,98.65
2022-10-05T06:50:18.529Z,98.54
2022-10-05T06:51:18.514Z,98.74
2022-10-05T06:52:18.507Z,98.44
2022-10-05T06:53:18.520Z,98.24
2022-10-05T06:54:18.481Z,98.08
2022-10-05T06:55:18.474Z,98.39
2022-10-05T06:56:18.524Z,98.08
2022-10-05T06:57:18.471Z,97.83
2022-10-05T06:58:18.435Z,97.94
2022-10-05T06:59:18.531Z,98.35
2022-10-05T07:00:18.434Z,98.04
2022-10-05T07:01:18.452Z,98.40
2022-10-05T07:02:18.454Z,97.69
2022-10-05T07:03:18.383Z,97.28
2022-10-05T07:04:18.371Z,97.89
2022-10-05T07:05:18.383Z,97.89
2022-10-05T07:06:18.347Z,97.58
2022-10-05T07:07:18.360Z,97.69
2022-10-05T07:08:18.324Z,97.44
2022-10-05T07:09:18.315Z,96.62
2022-10-05T07:10:18.324Z,96.72
2022-10-05T07:11:18.294Z,96.06
2022-10-05T07:12:18.317Z,96.37
2022-10-05T07:13:18.271Z,96.37
2022-10-05T07:14:18.259Z,95.81
2022-10-05T07:15:18.247Z,95.31
2022-10-05T07:16:18.273Z,95.41
2022-10-05T07:17:18.247Z,95.31
2022-10-05T07:18:18.213Z,95.16
2022-10-05T07:19:18.203Z,94.14
2022-10-05T07:20:18.191Z,93.84
2022-10-05T07:21:18.180Z,93.84
2022-10-05T07:22:18.198Z,93.69
2022-10-05T07:23:18.163Z,93.99
2022-10-05T07:24:18.148Z,92.97
2022-10-05T07:25:18.139Z,93.07
2022-10-05T07:26:18.123Z,93.07
2022-10-05T07:27:18.114Z,93.28
2022-10-05T07:28:18.234Z,93.28
2022-10-05T07:29:18.093Z,93.03
2022-10-05T07:30:18.078Z,93.13
2022-10-05T07:31:18.187Z,92.52
2022-10-05T07:32:18.062Z,92.83
2022-10-05T07:33:18.120Z,92.42
2022-10-05T07:34:18.035Z,92.22
2022-10-05T07:35:18.176Z,91.87
2022-10-05T07:36:18.013Z,91.91
2022-10-05T07:37:18.151Z,91.66
2022-10-05T07:38:17.990Z,92.07
2022-10-05T07:39:18.159Z,92.33
2022-10-05T07:40:17.988Z,92.64
2022-10-05T07:41:18.087Z,92.33
2022-10-05T07:42:17.946Z,92.03
2022-10-05T07:43:18.145Z,91.68
2022-10-05T07:44:17.978Z,92.09
2022-10-05T07:45:17.986Z,91.07
2022-10-05T07:46:17.970Z,90.46
2022-10-05T07:47:17.891Z,90.01
2022-10-05T07:48:17.879Z,89.81
2022-10-05T07:49:18.212Z,90.62
2022-10-05T07:50:17.855Z,90.62
2022-10-05T07:51:17.861Z,89.50
2022-10-05T07:52:17.860Z,90.27
2022-10-05T07:53:18.189Z,90.17
2022-10-05T07:54:17.817Z,90.48
2022-10-05T07:55:17.800Z,89.52
2022-10-05T07:56:17.787Z,89.92
2022-10-05T07:57:17.779Z,89.28
2022-10-05T07:58:17.786Z,88.81
2022-10-05T07:59:17.756Z,87.65
2022-10-05T08:00:17.793Z,87.71
2022-10-05T08:01:17.733Z,88.42
2022-10-05T08:02:17.886Z,87.40
2022-10-05T08:03:17.802Z,87.81
2022-10-05T08:04:17.698Z,87.40
2022-10-05T08:05:17.713Z,87.51
2022-10-05T08:06:17.698Z,87.46
2022-10-05T08:07:17.712Z,87.37
2022-10-05T08:08:19.638Z,87.97
2022-10-05T08:09:17.644Z,86.96
2022-10-05T08:10:17.649Z,87.37
2022-10-05T08:11:17.642Z,87.30
2022-10-05T08:12:17.617Z,87.30
2022-10-05T08:13:17.602Z,86.80
2022-10-05T08:14:17.587Z,86.69
2022-10-05T08:15:17.577Z,86.59
2022-10-05T08:16:17.752Z,87.00
2022-10-05T08:17:17.555Z,86.76
2022-10-05T08:18:17.542Z,86.55
2022-10-05T08:19:17.533Z,87.02
2022-10-05T08:20:17.542Z,86.10
2022-10-05T08:21:17.509Z,84.89
2022-10-05T08:22:17.498Z,84.99
2022-10-05T08:23:17.491Z,85.46
2022-10-05T08:24:17.478Z,85.66
2022-10-05T08:25:17.466Z,85.25
2022-10-05T08:26:17.486Z,85.31
2022-10-05T08:27:17.444Z,85.17
2022-10-05T08:28:17.492Z,83.96
2022-10-05T08:29:17.422Z,83.15
2022-10-05T08:30:17.409Z,83.41
2022-10-05T08:31:17.422Z,83.01
2022-10-05T08:32:17.404Z,82.90
2022-10-05T08:33:17.375Z,82.97
2022-10-05T08:34:17.366Z,81.79
2022-10-05T08:35:17.358Z,82.10
2022-10-05T08:36:17.348Z,82.46
2022-10-05T08:37:17.351Z,82.46
2022-10-05T08:38:17.323Z,82.12
2022-10-05T08:39:17.309Z,81.82
2022-10-05T08:40:17.297Z,80.66
2022-10-05T08:41:17.290Z,80.16
2022-10-05T08:42:17.298Z,79.92
2022-10-05T08:43:17.266Z,79.92
2022-10-05T08:44:17.257Z,77.73
2022-10-05T08:45:17.246Z,79.01
2022-10-05T08:46:17.241Z,79.41
2022-10-05T08:47:17.222Z,77.80
2022-10-05T08:48:17.262Z,78.91
2022-10-05T08:49:17.198Z,78.71
2022-10-05T08:50:17.203Z,78.97
2022-10-05T08:51:17.177Z,78.06
2022-10-05T08:52:17.200Z,77.86
2022-10-05T08:53:17.174Z,77.46
2022-10-05T08:54:17.140Z,77.86
2022-10-05T08:55:17.137Z,77.86
2022-10-05T08:56:20.115Z,77.22
2022-10-05T08:57:17.109Z,76.31
2022-10-05T08:58:17.098Z,76.35
2022-10-05T08:59:17.113Z,76.11
2022-10-05T09:00:17.074Z,76.11
2022-10-05T09:01:17.178Z,76.21
2022-10-05T09:02:17.117Z,76.86
2022-10-05T09:03:17.044Z,76.82
2022-10-05T09:04:17.071Z,76.92
2022-10-05T09:05:17.053Z,76.42
2022-10-05T09:06:17.010Z,74.84
2022-10-05T09:07:17.002Z,75.48
2022-10-05T09:08:16.991Z,77.43
2022-10-05T09:09:16.975Z,77.33
2022-10-05T09:10:16.966Z,77.97
2022-10-05T09:11:16.978Z,78.11
2022-10-05T09:12:16.941Z,79.16
2022-10-05T09:13:16.931Z,78.86
2022-10-05T09:14:16.918Z,80.18
2022-10-05T09:15:31.786Z,79.91
2022-10-05T09:16:18.006Z,80.31
2022-10-05T09:17:16.887Z,80.52
2022-10-05T09:18:16.874Z,80.11
2022-10-05T09:19:16.871Z,79.87
2022-10-05T09:20:16.888Z,80.07
2022-10-05T09:21:16.861Z,79.97
2022-10-05T09:22:16.828Z,80.11
2022-10-05T09:23:16.824Z,80.31
2022-10-05T09:24:16.810Z,80.68
2022-10-05T09:25:16.817Z,81.18
2022-10-05T09:26:19.265Z,81.39
2022-10-05T09:27:16.775Z,81.09
2022-10-05T09:28:16.825Z,80.27
2022-10-05T09:29:16.754Z,79.93
2022-10-05T09:30:16.743Z,79.29
2022-10-05T09:31:16.833Z,78.04
2022-10-05T09:32:16.823Z,77.84
2022-10-05T09:33:16.707Z,78.55
2022-10-05T09:34:16.696Z,78.04
2022-10-05T09:35:16.708Z,78.17
2022-10-05T09:36:16.803Z,78.55
2022-10-05T09:37:16.684Z,78.58
2022-10-05T09:38:16.651Z,78.88
2022-10-05T09:39:16.643Z,79.59
2022-10-05T09:40:16.634Z,79.15
2022-10-05T09:41:16.639Z,78.75
2022-10-05T09:42:16.609Z,79.35
2022-10-05T09:43:16.596Z,78.44
2022-10-05T09:44:16.584Z,78.10
2022-10-05T09:45:21.171Z,77.50
2022-10-05T09:46:16.626Z,77.66
2022-10-05T09:47:16.555Z,77.12
2022-10-05T09:48:16.564Z,77.02
2022-10-05T09:49:16.531Z,77.12
2022-10-05T09:50:16.516Z,76.98
2022-10-05T09:51:16.508Z,76.04
2022-10-05T09:52:19.104Z,75.34
2022-10-05T09:53:16.505Z,76.88
2022-10-05T09:54:16.483Z,77.08
2022-10-05T09:55:16.466Z,77.22
2022-10-05T09:56:16.472Z,77.22
2022-10-05T09:57:16.462Z,77.66
2022-10-05T09:58:16.433Z,77.76
2022-10-05T09:59:16.419Z,78.00
2022-10-05T10:00:16.407Z,78.50
2022-10-05T10:01:32.524Z,78.81
2022-10-05T10:02:17.555Z,79.11
2022-10-05T10:03:16.452Z,79.41
2022-10-05T10:04:16.364Z,79.32
2022-10-05T10:05:16.357Z,79.35
2022-10-05T10:06:16.338Z,79.86
2022-10-05T10:07:16.355Z,79.35
2022-10-05T10:08:16.336Z,79.86
2022-10-05T10:09:16.313Z,80.36
2022-10-05T10:10:16.316Z,80.36
2022-10-05T10:11:16.288Z,80.26
2022-10-05T10:12:16.301Z,80.66
2022-10-05T10:13:16.262Z,79.90
2022-10-05T10:14:16.324Z,79.79
2022-10-05T10:15:16.269Z,80.40
2022-10-05T10:16:16.268Z,80.20
2022-10-05T10:17:16.217Z,81.41
2022-10-05T10:18:16.206Z,81.01
2022-10-05T10:19:16.198Z,81.51
2022-10-05T10:20:16.183Z,81.71
2022-10-05T10:21:16.192Z,81.82
2022-10-05T10:22:16.160Z,81.82
2022-10-05T10:23:16.152Z,81.71
2022-10-05T10:24:16.159Z,81.41
2022-10-05T10:25:16.130Z,81.62
2022-10-05T10:26:16.141Z,81.71
2022-10-05T10:27:16.109Z,81.41
2022-10-05T10:28:16.163Z,80.60
2022-10-05T10:29:16.141Z,81.21
2022-10-05T10:30:16.115Z,81.17
2022-10-05T10:31:16.145Z,80.30
2022-10-05T10:32:16.072Z,80.10
2022-10-05T10:33:16.041Z,81.51
2022-10-05T10:34:16.027Z,81.11
2022-10-05T10:35:16.104Z,80.80
2022-10-05T10:36:16.008Z,80.97
2022-10-05T10:37:15.996Z,80.36
2022-10-05T10:38:15.983Z,80.57
2022-10-05T10:39:15.973Z,81.37
2022-10-05T10:40:16.037Z,81.17
2022-10-05T10:41:15.976Z,80.66
2022-10-05T10:42:15.939Z,80.22
2022-10-05T10:43:15.928Z,80.32
2022-10-05T10:44:15.919Z,80.63
2022-10-05T10:45:15.911Z,78.50
2022-10-05T10:46:15.901Z,80.02
2022-10-05T10:47:16.196Z,79.21
2022-10-05T10:48:15.894Z,78.77
2022-10-05T10:49:15.861Z,79.08
2022-10-05T10:50:15.932Z,78.23
2022-10-05T10:51:15.837Z,77.69
2022-10-05T10:52:15.827Z,77.59
2022-10-05T10:53:15.849Z,76.98
2022-10-05T10:54:15.805Z,76.68
2022-10-05T10:55:15.792Z,77.39
2022-10-05T10:56:15.802Z,76.88
2022-10-05T10:57:16.156Z,77.19
2022-10-05T10:58:16.386Z,76.88
2022-10-05T10:59:15.752Z,76.78
2022-10-05T11:00:15.955Z,76.95
2022-10-05T11:01:15.796Z,76.24
2022-10-05T11:02:15.771Z,76.54
2022-10-05T11:03:15.794Z,76.24
2022-10-05T11:04:15.714Z,75.63
2022-10-05T11:05:15.681Z,76.88
2022-10-05T11:06:15.671Z,76.14
2022-10-05T11:07:15.658Z,76.14
2022-10-05T11:08:15.672Z,75.94
2022-10-05T11:09:15.636Z,75.27
2022-10-05T11:10:15.701Z,76.18
2022-10-05T11:11:15.617Z,76.95
2022-10-05T11:12:15.870Z,76.68
2022-10-05T11:13:15.592Z,77.15
2022-10-05T11:14:15.585Z,76.04
2022-10-05T11:15:15.570Z,75.63
2022-10-05T11:16:18.744Z,74.93
2022-10-05T11:17:15.579Z,74.93
2022-10-05T11:18:15.545Z,74.90
2022-10-05T11:19:15.527Z,74.76
2022-10-05T11:20:15.554Z,73.32
2022-10-05T11:21:15.524Z,72.57
2022-10-05T11:22:15.493Z,72.31
2022-10-05T11:23:15.484Z,73.48
2022-10-05T11:24:15.476Z,72.47
2022-10-05T11:25:15.459Z,72.77
2022-10-05T11:26:15.470Z,73.35
2022-10-05T11:27:15.512Z,72.61
2022-10-05T11:28:15.565Z,73.11
2022-10-05T11:29:15.418Z,72.14
2022-10-05T11:30:15.461Z,71.83
2022-10-05T11:31:15.450Z,71.80
2022-10-05T11:32:15.406Z,71.90
2022-10-05T11:33:15.376Z,72.00
2022-10-05T11:34:15.363Z,71.94
2022-10-05T11:35:15.351Z,72.37
2022-10-05T11:36:15.343Z,72.07
2022-10-05T11:37:15.348Z,73.01
2022-10-05T11:38:15.317Z,73.32
2022-10-05T11:39:15.309Z,72.74
2022-10-05T11:40:15.296Z,73.55
2022-10-05T11:41:15.282Z,74.55
2022-10-05T11:42:15.294Z,74.55
2022-10-05T11:43:15.262Z,74.86
2022-10-05T11:44:15.269Z,75.02
2022-10-05T11:45:15.240Z,75.23
2022-10-05T11:46:15.281Z,74.73
2022-10-05T11:47:15.219Z,73.21
2022-10-05T11:48:15.205Z,72.81
2022-10-05T11:49:15.215Z,74.05
2022-10-05T11:50:15.186Z,73.75
2022-10-05T11:51:15.198Z,73.52
2022-10-05T11:52:15.183Z,73.52
2022-10-05T11:53:15.153Z,74.26
2022-10-05T11:54:15.140Z,73.92
2022-10-05T11:55:15.128Z,74.38
2022-10-05T11:56:15.121Z,73.01
2022-10-05T11:57:15.137Z,72.64
2022-10-05T11:58:15.129Z,72.64
2022-10-05T11:59:15.084Z,73.05
2022-10-05T12:00:15.097Z,73.72
2022-10-05T12:01:15.062Z,73.79
2022-10-05T12:02:15.055Z,74.49
2022-10-05T12:03:15.155Z,74.05
2022-10-05T12:04:15.172Z,73.45
2022-10-05T12:05:15.018Z,74.05
2022-10-05T12:06:15.009Z,74.05
2022-10-05T12:07:14.996Z,73.38
2022-10-05T12:08:15.008Z,73.48
2022-10-05T12:09:14.972Z,73.88
2022-10-05T12:10:14.962Z,74.59
2022-10-05T12:11:14.952Z,75.13
2022-10-05T12:12:15.064Z,74.73
2022-10-05T12:13:14.928Z,74.59
2022-10-05T12:14:14.920Z,74.69
2022-10-05T12:15:15.068Z,75.70
2022-10-05T12:16:14.981Z,75.63
2022-10-05T12:17:14.906Z,75.43
2022-10-05T12:18:14.877Z,76.04
2022-10-05T12:19:14.861Z,75.50
2022-10-05T12:20:14.855Z,76.84
2022-10-05T12:21:14.839Z,75.63
2022-10-05T12:22:14.850Z,76.95
2022-10-05T12:23:14.816Z,76.04
2022-10-05T12:24:14.808Z,75.63
2022-10-05T12:25:14.797Z,76.07
2022-10-05T12:26:14.785Z,76.28
2022-10-05T12:27:14.797Z,77.19
2022-10-05T12:28:14.799Z,77.08
2022-10-05T12:29:14.750Z,77.28
2022-10-05T12:30:14.764Z,76.98
2022-10-05T12:31:14.760Z,77.39
2022-10-05T12:32:14.770Z,77.69
2022-10-05T12:33:14.705Z,76.95
2022-10-05T12:34:14.698Z,75.46
2022-10-05T12:35:14.685Z,77.17
2022-10-05T12:36:14.673Z,74.76
2022-10-05T12:37:14.684Z,73.95
2022-10-05T12:38:14.676Z,74.55
2022-10-05T12:39:14.641Z,74.76
2022-10-05T12:40:14.631Z,74.52
2022-10-05T12:41:14.619Z,75.06
2022-10-05T12:42:14.607Z,75.10
2022-10-05T12:43:14.614Z,74.79
2022-10-05T12:44:14.586Z,74.86
2022-10-05T12:45:14.572Z,75.87
2022-10-05T12:46:14.687Z,75.46
2022-10-05T12:47:14.571Z,75.36
2022-10-05T12:48:14.570Z,74.82
2022-10-05T12:49:14.549Z,74.73
2022-10-05T12:50:14.560Z,74.38
2022-10-05T12:51:14.526Z,74.38
2022-10-05T12:52:14.498Z,73.78